Time,TemperatureF,DewpointF,PressureIn,WindDirection,WindDirectionDegrees,WindSpeedMPH,WindSpeedGustMPH,Humidity,HourlyPrecipIn,Conditions,Clouds,dailyrainin,SoftwareType,DateUTC
2013-02-11 00:03:00,64.9,57.2,29.95,North,11,4.0,12.0,76,0.00,,---,0.00,VWS V14.01,2013-02-11 06:03:00,
2013-02-11 00:08:00,64.9,57.5,29.95,North,349,5.0,11.0,77,0.00,,---,0.00,VWS V14.01,2013-02-11 06:08:00,
2013-02-11 00:13:00,64.7,57.7,29.95,North,4,6.0,11.0,78,0.00,,---,0.00,VWS V14.01,2013-02-11 06:13:00,
2013-02-11 00:18:00,64.3,57.3,29.95,NNE,16,3.0,11.0,78,0.00,,---,0.00,VWS V14.01,2013-02-11 06:18:00,
2013-02-11 00:23:00,64.0,57.0,29.96,North,358,5.0,11.0,78,0.00,,---,0.00,VWS V14.01,2013-02-11 06:23:00,
2013-02-11 00:28:00,63.8,56.8,29.95,NNW,336,3.0,11.0,78,0.00,,---,0.00,VWS V14.01,2013-02-11 06:28:00,
2013-02-11 00:33:00,63.8,56.8,29.95,NNE,25,8.0,12.0,78,0.00,,---,0.00,VWS V14.01,2013-02-11 06:33:00,
2013-02-11 00:38:00,63.8,56.5,29.94,NNW,336,4.0,12.0,77,0.00,,---,0.00,VWS V14.01,2013-02-11 06:38:00,
2013-02-11 00:43:00,63.8,56.8,29.94,NNE,30,4.0,12.0,78,0.00,,---,0.00,VWS V14.01,2013-02-11 06:43:00,
2013-02-11 00:48:00,63.8,56.5,29.94,NNE,23,8.0,13.0,77,0.00,,---,0.00,VWS V14.01,2013-02-11 06:48:00,
2013-02-11 00:53:00,63.9,56.6,29.94,North,358,7.0,13.0,77,0.00,,---,0.00,VWS V14.01,2013-02-11 06:53:00,
2013-02-11 00:58:00,63.9,56.6,29.94,NNE,29,7.0,13.0,77,0.00,,---,0.00,VWS V14.01,2013-02-11 06:58:00,
2013-02-11 01:03:00,63.9,56.2,29.95,North,351,6.0,10.0,76,0.00,,---,0.00,VWS V14.01,2013-02-11 07:03:00,
2013-02-11 01:08:00,63.9,56.2,29.95,NNE,20,6.0,14.0,76,0.00,,---,0.00,VWS V14.01,2013-02-11 07:08:00,
2013-02-11 01:13:00,63.8,56.1,29.95,NNE,16,7.0,14.0,76,0.00,,---,0.00,VWS V14.01,2013-02-11 07:13:00,
2013-02-11 01:18:00,63.9,56.2,29.95,NNE,15,11.0,16.0,76,0.00,,---,0.00,VWS V14.01,2013-02-11 07:18:00,
2013-02-11 01:23:00,63.8,55.7,29.96,NNE,27,12.0,16.0,75,0.00,,---,0.00,VWS V14.01,2013-02-11 07:23:00,
2013-02-11 01:28:00,63.7,55.6,29.95,NNE,27,9.0,16.0,75,0.00,,---,0.00,VWS V14.01,2013-02-11 07:28:00,
2013-02-11 01:33:00,63.7,55.6,29.95,NNE,21,11.0,16.0,75,0.00,,---,0.00,VWS V14.01,2013-02-11 07:33:00,
2013-02-11 01:38:00,63.7,55.6,29.95,NNE,25,6.0,16.0,75,0.00,,---,0.00,VWS V14.01,2013-02-11 07:38:00,
2013-02-11 01:43:00,63.7,55.6,29.96,North,11,10.0,16.0,75,0.00,,---,0.00,VWS V14.01,2013-02-11 07:43:00,
2013-02-11 01:48:00,63.7,56.0,29.96,NNW,331,6.0,16.0,76,0.00,,---,0.00,VWS V14.01,2013-02-11 07:48:00,
2013-02-11 01:53:00,63.7,56.0,29.97,North,354,8.0,16.0,76,0.00,,---,0.00,VWS V14.01,2013-02-11 07:53:00,
2013-02-11 01:58:00,63.7,55.6,29.97,North,349,10.0,16.0,75,0.00,,---,0.00,VWS V14.01,2013-02-11 07:58:00,
2013-02-11 02:03:00,63.7,55.6,29.96,NNE,17,5.0,6.0,75,0.00,,---,0.00,VWS V14.01,2013-02-11 08:03:00,
2013-02-11 02:08:00,63.7,56.0,29.95,NNE,19,10.0,11.0,76,0.00,,---,0.00,VWS V14.01,2013-02-11 08:08:00,
2013-02-11 02:13:00,63.7,56.0,29.94,NNE,29,8.0,16.0,76,0.00,,---,0.00,VWS V14.01,2013-02-11 08:13:00,
2013-02-11 02:18:00,63.6,55.5,29.93,NE,37,13.0,16.0,75,0.00,,---,0.00,VWS V14.01,2013-02-11 08:18:00,
2013-02-11 02:23:00,63.6,55.9,29.93,NNE,22,9.0,16.0,76,0.00,,---,0.00,VWS V14.01,2013-02-11 08:23:00,
2013-02-11 02:28:00,63.5,55.4,29.93,NE,47,12.0,16.0,75,0.00,,---,0.00,VWS V14.01,2013-02-11 08:28:00,
2013-02-11 02:33:00,63.5,55.8,29.93,ENE,68,8.0,16.0,76,0.00,,---,0.00,VWS V14.01,2013-02-11 08:33:00,
2013-02-11 02:38:00,63.5,55.8,29.93,NNE,33,12.0,16.0,76,0.00,,---,0.00,VWS V14.01,2013-02-11 08:38:00,
2013-02-11 02:43:00,63.6,56.3,29.94,ENE,57,6.0,16.0,77,0.00,,---,0.00,VWS V14.01,2013-02-11 08:43:00,
2013-02-11 02:48:00,63.8,56.8,29.95,North,10,5.0,16.0,78,0.00,,---,0.00,VWS V14.01,2013-02-11 08:48:00,
2013-02-11 02:53:00,63.9,56.9,29.95,NNE,16,8.0,16.0,78,0.00,,---,0.00,VWS V14.01,2013-02-11 08:53:00,
2013-02-11 02:58:00,64.0,57.0,29.94,NNE,29,10.0,16.0,78,0.00,,---,0.00,VWS V14.01,2013-02-11 08:58:00,
2013-02-11 03:03:00,64.0,57.0,29.94,NNE,13,6.0,8.0,78,0.00,,---,0.00,VWS V14.01,2013-02-11 09:03:00,
2013-02-11 03:08:00,64.0,57.0,29.93,NNE,32,7.0,14.0,78,0.00,,---,0.00,VWS V14.01,2013-02-11 09:08:00,
2013-02-11 03:13:00,63.9,56.9,29.94,NNE,30,11.0,14.0,78,0.00,,---,0.00,VWS V14.01,2013-02-11 09:13:00,
2013-02-11 03:18:00,63.9,56.9,29.94,NE,37,4.0,17.0,78,0.00,,---,0.00,VWS V14.01,2013-02-11 09:18:00,
2013-02-11 03:23:00,63.8,56.5,29.93,NE,44,9.0,17.0,77,0.00,,---,0.00,VWS V14.01,2013-02-11 09:23:00,
2013-02-11 03:28:00,63.7,56.4,29.93,NNE,25,7.0,17.0,77,0.00,,---,0.00,VWS V14.01,2013-02-11 09:28:00,
2013-02-11 03:33:00,63.7,56.4,29.93,NNE,33,9.0,17.0,77,0.00,,---,0.00,VWS V14.01,2013-02-11 09:33:00,
2013-02-11 03:38:00,63.7,56.0,29.93,NE,35,8.0,17.0,76,0.00,,---,0.00,VWS V14.01,2013-02-11 09:38:00,
2013-02-11 03:43:00,63.7,56.4,29.92,NNE,33,10.0,17.0,77,0.00,,---,0.00,VWS V14.01,2013-02-11 09:43:00,
2013-02-11 03:48:00,63.5,56.5,29.92,NNE,32,18.0,18.0,78,0.00,,---,0.00,VWS V14.01,2013-02-11 09:48:00,
2013-02-11 03:53:00,63.4,56.1,29.92,ENE,63,13.0,18.0,77,0.00,,---,0.00,VWS V14.01,2013-02-11 09:53:00,
2013-02-11 03:58:00,63.2,56.6,29.92,NE,44,15.0,18.0,79,0.00,,---,0.00,VWS V14.01,2013-02-11 09:58:00,
2013-02-11 04:03:00,62.7,56.8,29.92,NNE,27,11.0,13.0,81,0.00,,---,0.00,VWS V14.01,2013-02-11 10:03:00,
2013-02-11 04:08:00,62.4,56.8,29.92,NNE,25,10.0,14.0,82,0.00,,---,0.00,VWS V14.01,2013-02-11 10:08:00,
2013-02-11 04:13:00,62.5,56.6,29.92,NNE,23,11.0,15.0,81,0.00,,---,0.00,VWS V14.01,2013-02-11 10:13:00,
2013-02-11 04:18:00,62.7,56.5,29.93,NNE,21,8.0,15.0,80,0.00,,---,0.00,VWS V14.01,2013-02-11 10:18:00,
2013-02-11 04:23:00,62.9,56.6,29.93,NE,49,8.0,15.0,80,0.00,,---,0.00,VWS V14.01,2013-02-11 10:23:00,
2013-02-11 04:28:00,63.1,56.8,29.93,NNE,21,7.0,15.0,80,0.00,,---,0.00,VWS V14.01,2013-02-11 10:28:00,
2013-02-11 04:33:00,63.2,56.6,29.94,NNE,27,10.0,15.0,79,0.00,,---,0.00,VWS V14.01,2013-02-11 10:33:00,
2013-02-11 04:38:00,63.2,56.2,29.94,NNW,330,9.0,15.0,78,0.00,,---,0.00,VWS V14.01,2013-02-11 10:38:00,
2013-02-11 04:43:00,63.1,55.8,29.95,NE,41,8.0,16.0,77,0.00,,---,0.00,VWS V14.01,2013-02-11 10:43:00,
2013-02-11 04:48:00,61.8,55.6,29.95,North,4,8.0,18.0,80,0.05,,---,0.05,VWS V14.01,2013-02-11 10:48:00,
2013-02-11 04:53:00,60.6,55.1,29.95,NNW,329,4.0,18.0,82,0.05,,---,0.05,VWS V14.01,2013-02-11 10:53:00,
2013-02-11 04:58:00,60.1,55.3,29.95,NNE,19,12.0,18.0,84,0.06,,---,0.06,VWS V14.01,2013-02-11 10:58:00,
2013-02-11 05:03:00,59.9,54.7,29.95,NE,36,7.0,12.0,83,0.07,,---,0.07,VWS V14.01,2013-02-11 11:03:00,
2013-02-11 05:08:00,59.9,54.7,29.95,NE,43,11.0,18.0,83,0.07,,---,0.07,VWS V14.01,2013-02-11 11:08:00,
2013-02-11 05:13:00,60.0,54.2,29.95,NNE,19,12.0,18.0,81,0.07,,---,0.07,VWS V14.01,2013-02-11 11:13:00,
2013-02-11 05:18:00,59.9,54.4,29.94,NE,37,12.0,18.0,82,0.07,,---,0.07,VWS V14.01,2013-02-11 11:18:00,
2013-02-11 05:23:00,60.1,53.6,29.94,NNE,15,11.0,18.0,79,0.07,,---,0.07,VWS V14.01,2013-02-11 11:23:00,
2013-02-11 05:28:00,60.4,53.2,29.94,NE,40,16.0,23.0,77,0.07,,---,0.07,VWS V14.01,2013-02-11 11:28:00,
2013-02-11 05:33:00,60.5,53.3,29.94,NE,34,12.0,23.0,77,0.07,,---,0.07,VWS V14.01,2013-02-11 11:33:00,
2013-02-11 05:38:00,60.8,53.2,29.95,ENE,65,16.0,23.0,76,0.07,,---,0.07,VWS V14.01,2013-02-11 11:38:00,
2013-02-11 05:43:00,60.7,53.1,29.94,NNE,33,15.0,23.0,76,0.07,,---,0.07,VWS V14.01,2013-02-11 11:43:00,
2013-02-11 05:48:00,60.7,53.1,29.94,NNE,32,12.0,23.0,76,0.07,,---,0.07,VWS V14.01,2013-02-11 11:48:00,
2013-02-11 05:53:00,60.8,52.8,29.94,North,5,9.0,23.0,75,0.07,,---,0.07,VWS V14.01,2013-02-11 11:53:00,
2013-02-11 05:58:00,60.7,53.1,29.94,NNE,27,11.0,23.0,76,0.07,,---,0.07,VWS V14.01,2013-02-11 11:58:00,
2013-02-11 06:03:00,60.9,53.3,29.95,NE,36,11.0,15.0,76,0.00,,---,0.07,VWS V14.01,2013-02-11 12:03:00,
2013-02-11 06:08:00,61.2,52.5,29.96,NE,39,18.0,23.0,73,0.00,,---,0.07,VWS V14.01,2013-02-11 12:08:00,
2013-02-11 06:13:00,61.4,52.3,29.96,NNE,25,20.0,25.0,72,0.00,,---,0.07,VWS V14.01,2013-02-11 12:13:00,
2013-02-11 06:18:00,61.3,52.2,29.95,NE,41,13.0,25.0,72,0.00,,---,0.07,VWS V14.01,2013-02-11 12:18:00,
2013-02-11 06:23:00,61.1,52.8,29.95,NNE,25,19.0,25.0,74,0.00,,---,0.07,VWS V14.01,2013-02-11 12:23:00,
2013-02-11 06:28:00,61.1,53.1,29.96,NE,53,11.0,25.0,75,0.00,,---,0.07,VWS V14.01,2013-02-11 12:28:00,
2013-02-11 06:33:00,61.4,51.9,29.95,NE,43,12.0,25.0,71,0.00,,---,0.07,VWS V14.01,2013-02-11 12:33:00,
2013-02-11 06:38:00,61.3,51.8,29.96,NE,51,14.0,25.0,71,0.00,,---,0.07,VWS V14.01,2013-02-11 12:38:00,
2013-02-11 06:42:00,61.3,51.8,29.96,NE,49,17.0,25.0,71,0.00,,---,0.07,VWS V14.01,2013-02-11 12:42:00,
2013-02-11 06:47:00,61.2,52.5,29.96,NE,53,12.0,25.0,73,0.00,,---,0.07,VWS V14.01,2013-02-11 12:47:00,
2013-02-11 06:52:00,61.3,52.6,29.96,NE,49,9.0,25.0,73,0.00,,---,0.07,VWS V14.01,2013-02-11 12:52:00,
2013-02-11 06:57:00,61.3,53.0,29.96,ENE,65,11.0,25.0,74,0.00,,---,0.07,VWS V14.01,2013-02-11 12:57:00,
2013-02-11 07:02:00,61.3,52.2,29.96,NNE,29,9.0,9.0,72,0.00,,---,0.07,VWS V14.01,2013-02-11 13:02:00,
2013-02-11 07:07:00,61.3,52.2,29.96,NE,49,14.0,21.0,72,0.00,,---,0.07,VWS V14.01,2013-02-11 13:07:00,
2013-02-11 07:12:00,61.4,52.7,29.96,NE,49,10.0,22.0,73,0.00,,---,0.07,VWS V14.01,2013-02-11 13:12:00,
2013-02-11 07:17:00,61.6,52.9,29.96,NE,40,13.0,22.0,73,0.00,,---,0.07,VWS V14.01,2013-02-11 13:17:00,
2013-02-11 07:22:00,61.8,51.9,29.96,NE,45,10.0,26.0,70,0.00,,---,0.07,VWS V14.01,2013-02-11 13:22:00,
2013-02-11 07:27:00,61.7,51.8,29.95,NE,53,16.0,26.0,70,0.00,,---,0.07,VWS V14.01,2013-02-11 13:27:00,
2013-02-11 07:32:00,61.7,51.8,29.96,ENE,58,15.0,26.0,70,0.00,,---,0.07,VWS V14.01,2013-02-11 13:32:00,
2013-02-11 07:37:00,61.7,51.8,29.96,NE,42,23.0,26.0,70,0.00,,---,0.07,VWS V14.01,2013-02-11 13:37:00,
2013-02-11 07:42:00,61.7,52.2,29.96,ESE,105,11.0,26.0,71,0.00,,---,0.07,VWS V14.01,2013-02-11 13:42:00,
2013-02-11 07:47:00,61.7,52.2,29.96,ENE,58,15.0,26.0,71,0.00,,---,0.07,VWS V14.01,2013-02-11 13:47:00,
2013-02-11 07:52:00,61.6,52.9,29.96,NE,34,14.0,26.0,73,0.00,,---,0.07,VWS V14.01,2013-02-11 13:52:00,
2013-02-11 07:57:00,61.5,52.8,29.96,ENE,58,11.0,26.0,73,0.00,,---,0.07,VWS V14.01,2013-02-11 13:57:00,
2013-02-11 08:02:00,61.5,52.8,29.97,NE,41,9.0,14.0,73,0.00,,---,0.07,VWS V14.01,2013-02-11 14:02:00,
2013-02-11 08:08:00,61.6,52.5,29.96,ENE,68,15.0,22.0,72,0.00,,---,0.07,VWS V14.01,2013-02-11 14:08:00,
2013-02-11 08:13:00,61.6,52.9,29.96,ENE,61,26.0,26.0,73,0.00,,---,0.07,VWS V14.01,2013-02-11 14:13:00,
2013-02-11 08:18:00,61.6,52.5,29.95,ENE,64,19.0,26.0,72,0.00,,---,0.07,VWS V14.01,2013-02-11 14:18:00,
2013-02-11 08:23:00,61.7,52.6,29.95,ENE,57,23.0,29.0,72,0.00,,---,0.07,VWS V14.01,2013-02-11 14:23:00,
2013-02-11 08:28:00,61.6,52.5,29.95,NE,53,21.0,29.0,72,0.00,,---,0.07,VWS V14.01,2013-02-11 14:28:00,
2013-02-11 08:33:00,61.4,52.7,29.96,ENE,61,18.0,29.0,73,0.00,,---,0.07,VWS V14.01,2013-02-11 14:33:00,
2013-02-11 08:38:00,61.4,52.7,29.96,ENE,58,24.0,29.0,73,0.00,,---,0.07,VWS V14.01,2013-02-11 14:38:00,
2013-02-11 08:43:00,61.4,52.7,29.96,ENE,71,18.0,29.0,73,0.00,,---,0.07,VWS V14.01,2013-02-11 14:43:00,
2013-02-11 08:48:00,61.5,52.8,29.96,ENE,63,18.0,29.0,73,0.00,,---,0.07,VWS V14.01,2013-02-11 14:48:00,
2013-02-11 08:53:00,61.6,52.9,29.97,ENE,67,13.0,29.0,73,0.00,,---,0.07,VWS V14.01,2013-02-11 14:53:00,
2013-02-11 08:58:00,61.7,53.0,29.97,NE,36,17.0,29.0,73,0.00,,---,0.07,VWS V14.01,2013-02-11 14:58:00,
2013-02-11 09:02:00,61.8,53.1,29.97,ENE,77,10.0,19.0,73,0.00,,---,0.07,VWS V14.01,2013-02-11 15:02:00,
2013-02-11 09:07:00,61.7,53.0,29.98,NE,56,20.0,25.0,73,0.00,,---,0.07,VWS V14.01,2013-02-11 15:07:00,
2013-02-11 09:12:00,61.5,53.2,29.98,ENE,72,21.0,26.0,74,0.00,,---,0.07,VWS V14.01,2013-02-11 15:12:00,
2013-02-11 09:17:00,61.3,53.0,29.98,ENE,64,16.0,26.0,74,0.00,,---,0.07,VWS V14.01,2013-02-11 15:17:00,
2013-02-11 09:22:00,61.2,53.2,29.98,ENE,58,15.0,26.0,75,0.00,,---,0.07,VWS V14.01,2013-02-11 15:22:00,
2013-02-11 09:27:00,61.1,53.1,29.99,ENE,67,21.0,26.0,75,0.00,,---,0.07,VWS V14.01,2013-02-11 15:27:00,
2013-02-11 09:32:00,61.0,53.0,29.99,ENE,60,13.0,26.0,75,0.00,,---,0.07,VWS V14.01,2013-02-11 15:32:00,
2013-02-11 09:37:00,60.9,53.3,29.99,ENE,60,21.0,27.0,76,0.00,,---,0.07,VWS V14.01,2013-02-11 15:37:00,
2013-02-11 09:42:00,60.8,53.5,30.00,ENE,57,15.0,27.0,77,0.00,,---,0.07,VWS V14.01,2013-02-11 15:42:00,
2013-02-11 09:47:00,60.9,54.0,30.00,ENE,60,12.0,27.0,78,0.00,,---,0.07,VWS V14.01,2013-02-11 15:47:00,
2013-02-11 09:52:00,60.9,54.3,30.00,NE,53,14.0,27.0,79,0.00,,---,0.07,VWS V14.01,2013-02-11 15:52:00,
2013-02-11 09:57:00,60.8,54.6,30.00,NE,49,13.0,27.0,80,0.00,,---,0.07,VWS V14.01,2013-02-11 15:57:00,
2013-02-11 10:02:00,60.8,54.9,30.00,ENE,75,13.0,18.0,81,0.00,,---,0.07,VWS V14.01,2013-02-11 16:02:00,
2013-02-11 10:07:00,60.8,55.3,30.00,ENE,64,15.0,23.0,82,0.00,,---,0.07,VWS V14.01,2013-02-11 16:07:00,
2013-02-11 10:12:00,60.9,55.7,30.00,ENE,66,14.0,23.0,83,0.00,,---,0.07,VWS V14.01,2013-02-11 16:12:00,
2013-02-11 10:18:00,60.9,56.0,30.00,ENE,74,17.0,23.0,84,0.00,,---,0.07,VWS V14.01,2013-02-11 16:18:00,
2013-02-11 10:23:00,60.9,56.0,30.00,NE,49,11.0,23.0,84,0.00,,---,0.07,VWS V14.01,2013-02-11 16:23:00,
2013-02-11 10:28:00,60.9,56.0,30.00,ENE,76,17.0,23.0,84,0.00,,---,0.07,VWS V14.01,2013-02-11 16:28:00,
2013-02-11 10:33:00,60.9,56.0,30.00,NE,56,13.0,26.0,84,0.00,,---,0.07,VWS V14.01,2013-02-11 16:33:00,
2013-02-11 10:38:00,61.0,56.1,30.01,ENE,66,18.0,26.0,84,0.00,,---,0.07,VWS V14.01,2013-02-11 16:38:00,
2013-02-11 10:43:00,61.1,55.9,30.01,NE,51,18.0,26.0,83,0.00,,---,0.07,VWS V14.01,2013-02-11 16:43:00,
2013-02-11 10:48:00,61.0,56.1,30.01,ENE,58,22.0,26.0,84,0.00,,---,0.07,VWS V14.01,2013-02-11 16:48:00,
2013-02-11 10:53:00,61.1,56.6,30.00,ENE,68,14.0,26.0,85,0.00,,---,0.07,VWS V14.01,2013-02-11 16:53:00,
2013-02-11 10:58:00,61.2,56.3,30.00,ENE,64,20.0,28.0,84,0.00,,---,0.07,VWS V14.01,2013-02-11 16:58:00,
2013-02-11 11:03:00,61.2,56.7,30.00,NE,47,13.0,23.0,85,0.00,,---,0.07,VWS V14.01,2013-02-11 17:03:00,
2013-02-11 11:08:00,61.1,56.6,30.00,ENE,77,16.0,27.0,85,0.00,,---,0.07,VWS V14.01,2013-02-11 17:08:00,
2013-02-11 11:13:00,61.0,56.5,30.00,ENE,70,13.0,27.0,85,0.00,,---,0.07,VWS V14.01,2013-02-11 17:13:00,
2013-02-11 11:18:00,61.1,56.6,30.00,ENE,63,18.0,27.0,85,0.00,,---,0.07,VWS V14.01,2013-02-11 17:18:00,
2013-02-11 11:23:00,61.2,57.0,29.99,NE,56,16.0,27.0,86,0.00,,---,0.07,VWS V14.01,2013-02-11 17:23:00,
2013-02-11 11:28:00,61.3,57.1,29.99,ENE,57,14.0,27.0,86,0.00,,---,0.07,VWS V14.01,2013-02-11 17:28:00,
2013-02-11 11:33:00,61.3,57.1,30.00,ENE,61,12.0,27.0,86,0.00,,---,0.07,VWS V14.01,2013-02-11 17:33:00,
2013-02-11 11:38:00,61.3,57.4,30.00,ENE,61,14.0,27.0,87,0.00,,---,0.07,VWS V14.01,2013-02-11 17:38:00,
2013-02-11 11:43:00,61.3,57.7,29.99,ENE,63,13.0,27.0,88,0.00,,---,0.07,VWS V14.01,2013-02-11 17:43:00,
2013-02-11 11:48:00,61.4,57.8,29.99,East,79,16.0,27.0,88,0.00,,---,0.07,VWS V14.01,2013-02-11 17:48:00,
2013-02-11 11:52:00,61.4,58.1,29.99,ENE,77,12.0,27.0,89,0.00,,---,0.07,VWS V14.01,2013-02-11 17:52:00,
2013-02-11 11:57:00,61.3,58.0,29.99,NE,34,11.0,27.0,89,0.00,,---,0.07,VWS V14.01,2013-02-11 17:57:00,
2013-02-11 12:02:00,61.5,58.2,29.98,ENE,57,12.0,18.0,89,0.00,,---,0.07,VWS V14.01,2013-02-11 18:02:00,
2013-02-11 12:07:00,61.8,58.5,29.98,East,85,14.0,24.0,89,0.00,,---,0.07,VWS V14.01,2013-02-11 18:07:00,
2013-02-11 12:12:00,62.0,58.4,29.98,NE,46,12.0,24.0,88,0.00,,---,0.07,VWS V14.01,2013-02-11 18:12:00,
2013-02-11 12:18:00,62.0,58.1,29.98,ENE,76,22.0,24.0,87,0.00,,---,0.07,VWS V14.01,2013-02-11 18:18:00,
2013-02-11 12:23:00,62.1,58.2,29.97,NE,51,19.0,24.0,87,0.00,,---,0.07,VWS V14.01,2013-02-11 18:23:00,
2013-02-11 12:28:00,62.2,58.3,29.97,East,84,13.0,24.0,87,0.00,,---,0.07,VWS V14.01,2013-02-11 18:28:00,
2013-02-11 12:33:00,62.1,58.2,29.97,NE,53,20.0,24.0,87,0.00,,---,0.07,VWS V14.01,2013-02-11 18:33:00,
2013-02-11 12:38:00,62.1,58.5,29.97,ENE,73,10.0,24.0,88,0.00,,---,0.07,VWS V14.01,2013-02-11 18:38:00,
2013-02-11 12:43:00,62.1,58.5,29.97,ENE,62,14.0,24.0,88,0.00,,---,0.07,VWS V14.01,2013-02-11 18:43:00,
2013-02-11 12:48:00,62.0,58.4,29.97,ENE,65,14.0,24.0,88,0.00,,---,0.07,VWS V14.01,2013-02-11 18:48:00,
2013-02-11 12:53:00,62.0,58.4,29.98,ENE,70,17.0,24.0,88,0.00,,---,0.07,VWS V14.01,2013-02-11 18:53:00,
2013-02-11 12:58:00,61.8,58.5,29.98,ENE,67,14.0,24.0,89,0.00,,---,0.07,VWS V14.01,2013-02-11 18:58:00,
2013-02-11 13:03:00,61.8,58.5,29.97,ENE,77,9.0,15.0,89,0.00,,---,0.07,VWS V14.01,2013-02-11 19:03:00,
2013-02-11 13:08:00,61.8,58.5,29.97,NE,56,14.0,22.0,89,0.00,,---,0.07,VWS V14.01,2013-02-11 19:08:00,
2013-02-11 13:13:00,62.0,58.7,29.97,ENE,67,9.0,22.0,89,0.00,,---,0.07,VWS V14.01,2013-02-11 19:13:00,
2013-02-11 13:18:00,62.0,59.0,29.97,ENE,58,16.0,22.0,90,0.00,,---,0.07,VWS V14.01,2013-02-11 19:18:00,
2013-02-11 13:23:00,62.1,58.8,29.96,ENE,68,16.0,22.0,89,0.00,,---,0.07,VWS V14.01,2013-02-11 19:23:00,
2013-02-11 13:28:00,62.2,59.2,29.96,North,5,4.0,22.0,90,0.00,,---,0.07,VWS V14.01,2013-02-11 19:28:00,
2013-02-11 13:33:00,62.2,58.9,29.96,ENE,62,11.0,22.0,89,0.00,,---,0.07,VWS V14.01,2013-02-11 19:33:00,
2013-02-11 13:38:00,62.2,58.9,29.95,ENE,60,14.0,22.0,89,0.00,,---,0.07,VWS V14.01,2013-02-11 19:38:00,
2013-02-11 13:43:00,62.2,58.9,29.95,ENE,73,8.0,22.0,89,0.00,,---,0.07,VWS V14.01,2013-02-11 19:43:00,
2013-02-11 13:48:00,62.2,59.2,29.94,East,82,10.0,22.0,90,0.00,,---,0.07,VWS V14.01,2013-02-11 19:48:00,
2013-02-11 13:53:00,62.2,59.2,29.94,ENE,58,14.0,23.0,90,0.00,,---,0.07,VWS V14.01,2013-02-11 19:53:00,
2013-02-11 13:58:00,62.1,59.1,29.94,ENE,60,13.0,23.0,90,0.00,,---,0.07,VWS V14.01,2013-02-11 19:58:00,
2013-02-11 14:03:00,62.2,59.2,29.94,NE,53,18.0,20.0,90,0.00,,---,0.07,VWS V14.01,2013-02-11 20:03:00,
2013-02-11 14:08:00,62.3,59.3,29.94,ENE,60,10.0,20.0,90,0.00,,---,0.07,VWS V14.01,2013-02-11 20:08:00,
2013-02-11 14:13:00,62.4,59.4,29.94,ENE,63,14.0,21.0,90,0.00,,---,0.07,VWS V14.01,2013-02-11 20:13:00,
2013-02-11 14:18:00,62.3,59.3,29.93,ENE,61,15.0,21.0,90,0.00,,---,0.07,VWS V14.01,2013-02-11 20:18:00,
2013-02-11 14:23:00,62.3,59.6,29.93,ENE,64,16.0,21.0,91,0.00,,---,0.07,VWS V14.01,2013-02-11 20:23:00,
2013-02-11 14:28:00,62.4,59.7,29.93,NE,56,15.0,21.0,91,0.00,,---,0.07,VWS V14.01,2013-02-11 20:28:00,
2013-02-11 14:33:00,62.4,59.7,29.93,NNW,336,9.0,22.0,91,0.00,,---,0.07,VWS V14.01,2013-02-11 20:33:00,
2013-02-11 14:38:00,62.4,59.7,29.93,ENE,64,12.0,22.0,91,0.00,,---,0.07,VWS V14.01,2013-02-11 20:38:00,
2013-02-11 14:43:00,62.4,59.7,29.93,ENE,70,10.0,22.0,91,0.00,,---,0.07,VWS V14.01,2013-02-11 20:43:00,
2013-02-11 14:48:00,62.4,60.0,29.93,NE,49,13.0,22.0,92,0.00,,---,0.07,VWS V14.01,2013-02-11 20:48:00,
2013-02-11 14:53:00,62.4,60.0,29.93,ENE,68,16.0,22.0,92,0.00,,---,0.07,VWS V14.01,2013-02-11 20:53:00,
2013-02-11 14:58:00,62.4,60.0,29.93,NE,43,6.0,22.0,92,0.00,,---,0.07,VWS V14.01,2013-02-11 20:58:00,
2013-02-11 15:03:00,62.4,60.0,29.92,NE,39,13.0,13.0,92,0.00,,---,0.07,VWS V14.01,2013-02-11 21:03:00,
2013-02-11 15:08:00,62.3,60.0,29.93,NE,47,14.0,19.0,92,0.00,,---,0.07,VWS V14.01,2013-02-11 21:08:00,
2013-02-11 15:13:00,62.2,60.2,29.92,NE,36,16.0,19.0,93,0.00,,---,0.07,VWS V14.01,2013-02-11 21:13:00,
2013-02-11 15:18:00,62.1,60.1,29.92,East,79,7.0,19.0,93,0.00,,---,0.07,VWS V14.01,2013-02-11 21:18:00,
2013-02-11 15:23:00,62.1,60.4,29.92,NE,47,9.0,19.0,94,0.00,,---,0.07,VWS V14.01,2013-02-11 21:23:00,
2013-02-11 15:28:00,62.1,60.4,29.92,ENE,58,11.0,19.0,94,0.00,,---,0.07,VWS V14.01,2013-02-11 21:28:00,
2013-02-11 15:33:00,62.0,60.3,29.92,ENE,76,8.0,19.0,94,0.00,,---,0.07,VWS V14.01,2013-02-11 21:33:00,
2013-02-11 15:38:00,62.0,60.3,29.92,NE,56,8.0,19.0,94,0.00,,---,0.07,VWS V14.01,2013-02-11 21:38:00,
2013-02-11 15:43:00,61.9,60.5,29.92,NNE,25,11.0,19.0,95,0.00,,---,0.07,VWS V14.01,2013-02-11 21:43:00,
2013-02-11 15:48:00,61.8,60.4,29.92,ENE,57,8.0,19.0,95,0.00,,---,0.07,VWS V14.01,2013-02-11 21:48:00,
2013-02-11 15:53:00,61.8,60.4,29.92,NE,43,9.0,19.0,95,0.00,,---,0.07,VWS V14.01,2013-02-11 21:53:00,
2013-02-11 15:58:00,61.7,60.3,29.92,NE,49,13.0,19.0,95,0.01,,---,0.08,VWS V14.01,2013-02-11 21:58:00,
2013-02-11 16:03:00,61.6,60.2,29.92,ENE,61,10.0,13.0,95,0.01,,---,0.08,VWS V14.01,2013-02-11 22:03:00,
2013-02-11 16:08:00,61.5,60.3,29.91,NE,38,14.0,17.0,96,0.01,,---,0.08,VWS V14.01,2013-02-11 22:08:00,
2013-02-11 16:13:00,61.4,60.2,29.91,NE,45,8.0,17.0,96,0.01,,---,0.08,VWS V14.01,2013-02-11 22:13:00,
2013-02-11 16:18:00,61.4,60.2,29.91,NE,49,7.0,17.0,96,0.01,,---,0.08,VWS V14.01,2013-02-11 22:18:00,
2013-02-11 16:23:00,61.3,60.2,29.91,ENE,58,9.0,17.0,96,0.01,,---,0.08,VWS V14.01,2013-02-11 22:23:00,
2013-02-11 16:28:00,61.2,60.0,29.92,NNE,27,5.0,17.0,96,0.01,,---,0.08,VWS V14.01,2013-02-11 22:28:00,
2013-02-11 16:33:00,61.1,60.0,29.92,ENE,76,7.0,17.0,96,0.01,,---,0.08,VWS V14.01,2013-02-11 22:33:00,
2013-02-11 16:38:00,61.0,59.9,29.92,NNE,14,13.0,17.0,96,0.01,,---,0.08,VWS V14.01,2013-02-11 22:38:00,
2013-02-11 16:43:00,60.9,60.0,29.92,NNE,20,14.0,17.0,97,0.01,,---,0.08,VWS V14.01,2013-02-11 22:43:00,
2013-02-11 16:48:00,60.8,60.0,29.92,NE,44,14.0,17.0,97,0.01,,---,0.08,VWS V14.01,2013-02-11 22:48:00,
2013-02-11 16:53:00,60.6,59.8,29.92,NNE,25,10.0,17.0,97,0.01,,---,0.08,VWS V14.01,2013-02-11 22:53:00,
2013-02-11 16:58:00,60.5,59.7,29.92,NNE,27,12.0,17.0,97,0.01,,---,0.08,VWS V14.01,2013-02-11 22:58:00,
2013-02-11 17:03:00,60.4,59.5,29.92,NE,53,12.0,12.0,97,0.00,,---,0.08,VWS V14.01,2013-02-11 23:03:00,
2013-02-11 17:08:00,60.3,59.5,29.92,NE,49,9.0,16.0,97,0.00,,---,0.08,VWS V14.01,2013-02-11 23:08:00,
2013-02-11 17:13:00,60.1,59.2,29.92,NE,53,9.0,17.0,97,0.00,,---,0.08,VWS V14.01,2013-02-11 23:13:00,
2013-02-11 17:18:00,60.0,59.2,29.92,NNE,33,9.0,18.0,97,0.00,,---,0.08,VWS V14.01,2013-02-11 23:18:00,
2013-02-11 17:23:00,59.8,59.0,29.92,NE,53,12.0,18.0,97,0.00,,---,0.08,VWS V14.01,2013-02-11 23:23:00,
2013-02-11 17:28:00,59.7,58.8,29.92,NE,47,14.0,18.0,97,0.00,,---,0.08,VWS V14.01,2013-02-11 23:28:00,
2013-02-11 17:33:00,59.7,58.8,29.92,NE,51,9.0,19.0,97,0.00,,---,0.08,VWS V14.01,2013-02-11 23:33:00,
2013-02-11 17:38:00,59.7,58.8,29.92,NE,34,16.0,19.0,97,0.00,,---,0.08,VWS V14.01,2013-02-11 23:38:00,
2013-02-11 17:43:00,59.4,58.5,29.92,NE,43,8.0,19.0,97,0.00,,---,0.08,VWS V14.01,2013-02-11 23:43:00,
2013-02-11 17:48:00,59.4,58.5,29.92,ENE,58,18.0,19.0,97,0.01,,---,0.09,VWS V14.01,2013-02-11 23:48:00,
2013-02-11 17:53:00,59.2,58.3,29.92,NE,36,16.0,19.0,97,0.01,,---,0.09,VWS V14.01,2013-02-11 23:53:00,
2013-02-11 17:58:00,59.2,58.3,29.92,NE,54,13.0,22.0,97,0.01,,---,0.09,VWS V14.01,2013-02-11 23:58:00,
2013-02-11 18:03:00,59.2,58.3,29.92,NE,37,16.0,18.0,97,0.01,,---,0.09,VWS V14.01,2013-02-12 00:03:00,
2013-02-11 18:08:00,59.1,58.2,29.92,NE,53,13.0,22.0,97,0.01,,---,0.09,VWS V14.01,2013-02-12 00:08:00,
2013-02-11 18:13:00,59.0,58.2,29.92,NE,47,9.0,22.0,97,0.01,,---,0.09,VWS V14.01,2013-02-12 00:13:00,
2013-02-11 18:18:00,58.9,58.0,29.93,NE,34,12.0,22.0,97,0.01,,---,0.09,VWS V14.01,2013-02-12 00:18:00,
2013-02-11 18:23:00,58.9,58.0,29.93,ENE,60,8.0,22.0,97,0.01,,---,0.09,VWS V14.01,2013-02-12 00:23:00,
2013-02-11 18:28:00,59.0,58.2,29.93,NNE,23,13.0,22.0,97,0.01,,---,0.09,VWS V14.01,2013-02-12 00:28:00,
2013-02-11 18:33:00,58.9,58.0,29.93,NE,34,15.0,22.0,97,0.01,,---,0.09,VWS V14.01,2013-02-12 00:33:00,
2013-02-11 18:38:00,58.7,57.8,29.93,NE,43,17.0,22.0,97,0.01,,---,0.09,VWS V14.01,2013-02-12 00:38:00,
2013-02-11 18:43:00,58.5,57.7,29.93,North,5,10.0,22.0,97,0.01,,---,0.09,VWS V14.01,2013-02-12 00:43:00,
2013-02-11 18:48:00,58.4,57.6,29.94,NNE,21,11.0,22.0,97,0.01,,---,0.09,VWS V14.01,2013-02-12 00:48:00,
2013-02-11 18:53:00,58.4,57.6,29.94,NNE,29,13.0,22.0,97,0.01,,---,0.09,VWS V14.01,2013-02-12 00:53:00,
2013-02-11 18:58:00,58.4,57.6,29.94,NE,53,6.0,22.0,97,0.01,,---,0.09,VWS V14.01,2013-02-12 00:58:00,
2013-02-11 19:03:00,58.4,57.6,29.94,NE,49,8.0,11.0,97,0.00,,---,0.09,VWS V14.01,2013-02-12 01:03:00,
2013-02-11 19:08:00,58.2,57.4,29.94,NNE,22,9.0,17.0,97,0.00,,---,0.09,VWS V14.01,2013-02-12 01:08:00,
2013-02-11 19:13:00,58.2,57.4,29.94,ENE,64,11.0,22.0,97,0.00,,---,0.09,VWS V14.01,2013-02-12 01:13:00,
2013-02-11 19:18:00,58.0,57.2,29.94,NE,44,14.0,22.0,97,0.00,,---,0.09,VWS V14.01,2013-02-12 01:18:00,
2013-02-11 19:23:00,57.9,57.1,29.93,ENE,68,16.0,22.0,97,0.00,,---,0.09,VWS V14.01,2013-02-12 01:23:00,
2013-02-11 19:28:00,57.8,57.0,29.93,ENE,62,13.0,22.0,97,0.00,,---,0.09,VWS V14.01,2013-02-12 01:28:00,
2013-02-11 19:33:00,57.9,57.1,29.93,NNE,22,10.0,22.0,97,0.00,,---,0.09,VWS V14.01,2013-02-12 01:33:00,
2013-02-11 19:38:00,57.9,57.1,29.93,NE,37,8.0,22.0,97,0.00,,---,0.09,VWS V14.01,2013-02-12 01:38:00,
2013-02-11 19:43:00,57.8,57.0,29.93,North,11,10.0,22.0,97,0.00,,---,0.09,VWS V14.01,2013-02-12 01:43:00,
2013-02-11 19:48:00,57.8,57.0,29.94,NE,37,11.0,22.0,97,0.00,,---,0.09,VWS V14.01,2013-02-12 01:48:00,
2013-02-11 19:53:00,57.8,57.0,29.94,NE,56,9.0,22.0,97,0.00,,---,0.09,VWS V14.01,2013-02-12 01:53:00,
2013-02-11 19:58:00,57.8,57.0,29.94,ENE,58,10.0,22.0,97,0.00,,---,0.09,VWS V14.01,2013-02-12 01:58:00,
2013-02-11 20:03:00,57.7,56.9,29.94,NNE,27,12.0,12.0,97,0.00,,---,0.09,VWS V14.01,2013-02-12 02:03:00,
2013-02-11 20:08:00,57.6,56.8,29.94,NE,37,12.0,17.0,97,0.00,,---,0.09,VWS V14.01,2013-02-12 02:08:00,
2013-02-11 20:13:00,57.5,56.7,29.95,NE,45,10.0,23.0,97,0.00,,---,0.09,VWS V14.01,2013-02-12 02:13:00,
2013-02-11 20:18:00,57.5,56.7,29.95,NE,34,13.0,23.0,97,0.00,,---,0.09,VWS V14.01,2013-02-12 02:18:00,
2013-02-11 20:23:00,57.6,56.8,29.95,NE,36,12.0,23.0,97,0.00,,---,0.09,VWS V14.01,2013-02-12 02:23:00,
2013-02-11 20:28:00,57.5,56.7,29.95,NE,37,12.0,23.0,97,0.00,,---,0.09,VWS V14.01,2013-02-12 02:28:00,
2013-02-11 20:33:00,57.6,56.8,29.95,NNW,347,8.0,23.0,97,0.00,,---,0.09,VWS V14.01,2013-02-12 02:33:00,
2013-02-11 20:38:00,57.5,56.7,29.95,NNE,32,16.0,23.0,97,0.00,,---,0.09,VWS V14.01,2013-02-12 02:38:00,
2013-02-11 20:43:00,57.6,56.8,29.95,NE,40,14.0,23.0,97,0.00,,---,0.09,VWS V14.01,2013-02-12 02:43:00,
2013-02-11 20:48:00,57.7,56.9,29.94,ENE,77,14.0,23.0,97,0.00,,---,0.09,VWS V14.01,2013-02-12 02:48:00,
2013-02-11 20:53:00,57.7,56.9,29.94,NE,36,15.0,23.0,97,0.00,,---,0.09,VWS V14.01,2013-02-12 02:53:00,
2013-02-11 20:58:00,57.5,56.7,29.94,North,9,15.0,23.0,97,0.00,,---,0.09,VWS V14.01,2013-02-12 02:58:00,
2013-02-11 21:03:00,57.5,56.7,29.94,ENE,70,10.0,13.0,97,0.00,,---,0.09,VWS V14.01,2013-02-12 03:03:00,
2013-02-11 21:08:00,57.4,56.6,29.94,ENE,57,12.0,21.0,97,0.00,,---,0.09,VWS V14.01,2013-02-12 03:08:00,
2013-02-11 21:13:00,57.3,56.5,29.94,ENE,60,10.0,21.0,97,0.00,,---,0.09,VWS V14.01,2013-02-12 03:13:00,
2013-02-11 21:18:00,57.3,56.5,29.94,ENE,58,18.0,21.0,97,0.00,,---,0.09,VWS V14.01,2013-02-12 03:18:00,
2013-02-11 21:22:00,57.3,56.5,29.94,NE,46,15.0,21.0,97,0.00,,---,0.09,VWS V14.01,2013-02-12 03:22:00,
2013-02-11 21:27:00,57.4,56.6,29.94,NE,56,8.0,21.0,97,0.00,,---,0.09,VWS V14.01,2013-02-12 03:27:00,
2013-02-11 21:33:00,57.4,56.6,29.94,North,11,14.0,21.0,97,0.00,,---,0.09,VWS V14.01,2013-02-12 03:33:00,
2013-02-11 21:38:00,57.3,56.5,29.94,NE,53,17.0,21.0,97,0.00,,---,0.09,VWS V14.01,2013-02-12 03:38:00,
2013-02-11 21:43:00,57.3,56.5,29.94,ENE,61,9.0,22.0,97,0.00,,---,0.09,VWS V14.01,2013-02-12 03:43:00,
2013-02-11 21:48:00,57.4,56.6,29.95,North,11,16.0,22.0,97,0.00,,---,0.09,VWS V14.01,2013-02-12 03:48:00,
2013-02-11 21:53:00,57.5,56.7,29.94,NE,40,16.0,22.0,97,0.00,,---,0.09,VWS V14.01,2013-02-12 03:53:00,
2013-02-11 21:57:00,57.4,56.6,29.94,NE,56,19.0,22.0,97,0.00,,---,0.09,VWS V14.01,2013-02-12 03:57:00,
2013-02-11 22:02:00,57.5,56.7,29.94,NNE,33,13.0,13.0,97,0.00,,---,0.09,VWS V14.01,2013-02-12 04:02:00,
2013-02-11 22:07:00,57.5,56.7,29.94,NNE,25,11.0,18.0,97,0.00,,---,0.09,VWS V14.01,2013-02-12 04:07:00,
2013-02-11 22:12:00,57.4,56.6,29.94,NE,53,12.0,18.0,97,0.00,,---,0.09,VWS V14.01,2013-02-12 04:12:00,
2013-02-11 22:17:00,57.4,56.6,29.94,NE,54,13.0,19.0,97,0.00,,---,0.09,VWS V14.01,2013-02-12 04:17:00,
2013-02-11 22:22:00,57.5,56.7,29.94,ENE,64,11.0,19.0,97,0.00,,---,0.09,VWS V14.01,2013-02-12 04:22:00,
2013-02-11 22:27:00,57.4,56.6,29.94,NNE,30,16.0,19.0,97,0.00,,---,0.09,VWS V14.01,2013-02-12 04:27:00,
2013-02-11 22:32:00,57.4,56.6,29.94,ENE,63,6.0,19.0,97,0.00,,---,0.09,VWS V14.01,2013-02-12 04:32:00,
2013-02-11 22:37:00,57.4,56.6,29.94,ENE,58,14.0,19.0,97,0.00,,---,0.09,VWS V14.01,2013-02-12 04:37:00,
2013-02-11 22:42:00,57.5,56.7,29.94,ENE,63,11.0,19.0,97,0.00,,---,0.09,VWS V14.01,2013-02-12 04:42:00,
2013-02-11 22:47:00,57.6,56.8,29.94,NNE,23,10.0,19.0,97,0.00,,---,0.09,VWS V14.01,2013-02-12 04:47:00,
2013-02-11 22:52:00,57.7,56.9,29.94,ENE,58,9.0,19.0,97,0.00,,---,0.09,VWS V14.01,2013-02-12 04:52:00,
2013-02-11 22:57:00,57.9,57.1,29.94,NE,39,14.0,19.0,97,0.00,,---,0.09,VWS V14.01,2013-02-12 04:57:00,
2013-02-11 23:00:00,57.9,57.1,29.93,ENE,65,7.0,19.0,97,0.00,,---,0.09,VWS V14.01,2013-02-12 05:00:00,
2013-02-11 23:05:00,58.1,57.3,29.93,ENE,76,7.0,18.0,97,0.00,,---,0.09,VWS V14.01,2013-02-12 05:05:00,
2013-02-11 23:10:00,58.3,57.5,29.93,NE,51,10.0,18.0,97,0.00,,---,0.09,VWS V14.01,2013-02-12 05:10:00,
2013-02-11 23:15:00,58.4,57.6,29.93,NE,46,5.0,18.0,97,0.00,,---,0.09,VWS V14.01,2013-02-12 05:15:00,
2013-02-11 23:20:00,58.4,57.6,29.93,NE,39,14.0,19.0,97,0.00,,---,0.09,VWS V14.01,2013-02-12 05:20:00,
2013-02-11 23:25:00,58.4,57.6,29.93,NE,41,12.0,19.0,97,0.00,,---,0.09,VWS V14.01,2013-02-12 05:25:00,
2013-02-11 23:30:00,58.4,57.6,29.93,ENE,64,13.0,19.0,97,0.00,,---,0.09,VWS V14.01,2013-02-12 05:30:00,
2013-02-11 23:35:00,58.5,57.7,29.93,NE,53,9.0,19.0,97,0.00,,---,0.09,VWS V14.01,2013-02-12 05:35:00,
2013-02-11 23:40:00,58.6,57.8,29.93,NE,50,12.0,19.0,97,0.00,,---,0.09,VWS V14.01,2013-02-12 05:40:00,
2013-02-11 23:45:00,58.6,57.8,29.93,ENE,65,14.0,19.0,97,0.00,,---,0.09,VWS V14.01,2013-02-12 05:45:00,
2013-02-11 23:50:00,58.7,57.8,29.92,NE,41,14.0,19.0,97,0.00,,---,0.09,VWS V14.01,2013-02-12 05:50:00,
2013-02-11 23:55:00,58.9,58.0,29.92,ENE,58,12.0,19.0,97,0.00,,---,0.09,VWS V14.01,2013-02-12 05:55:00,